Time;durP1;ratioP1;P1;durP2;ratioP2;P2;SDS_P1;SDS_P2;PMS_P1;PMS_P2;Temp;Humidity;BMP_temperature;BMP_pressure;BME280_temperature;BME280_humidity;BME280_pressure;Samples;Min_cycle;Max_cycle;Signal;HPM_P1;HPM_P2
2022/01/14 00:01:20;;;;;;;32.27;20.50;;;-9.90;99.90;;;;;;5116283;28;20428;-86
2022/01/14 00:03:46;;;;;;;30.40;20.00;;;-8.30;99.90;;;;;;5116683;28;20213;-86
2022/01/14 00:06:11;;;;;;;31.40;20.50;;;-8.90;99.90;;;;;;5116403;28;20178;-85
2022/01/14 00:08:37;;;;;;;29.70;18.93;;;-7.90;99.90;;;;;;5115549;28;20193;-86
2022/01/14 00:11:04;;;;;;;34.60;20.97;;;-9.70;99.90;;;;;;5116643;28;20173;-86
2022/01/14 00:16:05;;;;;;;35.33;20.77;;;-9.70;99.90;;;;;;5116676;28;20675;-85
2022/01/14 00:18:31;;;;;;;34.80;18.87;;;-9.70;99.90;;;;;;5115545;28;20464;-85
2022/01/14 00:20:59;;;;;;;34.87;21.67;;;-10.90;99.90;;;;;;5115892;28;20401;-85
2022/01/14 00:23:30;;;;;;;30.93;19.47;;;-7.80;99.90;;;;;;5115576;28;20442;-87
2022/01/14 00:31:45;;;;;;;30.63;20.10;;;-10.60;99.90;;;;;;5117318;28;20419;-88
2022/01/14 00:34:16;;;;;;;35.87;18.80;;;-9.90;99.90;;;;;;5115811;28;20422;-88
2022/01/14 00:36:43;;;;;;;29.17;17.53;;;-7.00;99.90;;;;;;5116506;28;20417;-89
2022/01/14 00:39:10;;;;;;;26.13;19.20;;;-9.40;99.90;;;;;;5115150;28;20400;-89
2022/01/14 00:41:36;;;;;;;32.27;19.70;;;-8.50;99.90;;;;;;5116139;28;20428;-89
2022/01/14 00:44:07;;;;;;;38.60;19.47;;;-10.00;99.90;;;;;;5115624;28;20410;-88
2022/01/14 00:46:33;;;;;;;24.40;18.40;;;-10.20;99.90;;;;;;5115409;28;20405;-84
2022/01/14 00:48:59;;;;;;;27.47;18.73;;;-10.50;99.90;;;;;;5115091;28;20408;-85
2022/01/14 00:51:25;;;;;;;29.47;17.07;;;-10.20;99.90;;;;;;5114600;28;20183;-86
2022/01/14 00:53:50;;;;;;;31.10;18.87;;;-7.80;99.90;;;;;;5114871;28;20292;-86
2022/01/14 00:56:26;;;;;;;27.50;18.93;;;-10.00;99.90;;;;;;5115175;28;20571;-86
2022/01/14 01:01:38;;;;;;;33.63;21.00;;;-9.80;99.90;;;;;;5115256;28;20493;-87
2022/01/14 01:04:04;;;;;;;27.00;18.33;;;-6.90;99.90;;;;;;5115002;28;20408;-87
2022/01/14 01:06:30;;;;;;;29.57;17.17;;;-9.50;99.90;;;;;;5115315;28;20398;-87
2022/01/14 01:08:57;;;;;;;28.73;17.57;;;-8.70;99.90;;;;;;5114360;28;20543;-86
2022/01/14 01:11:33;;;;;;;27.97;19.10;;;-9.30;99.90;;;;;;5114934;28;20838;-86
2022/01/14 01:14:09;;;;;;;29.10;18.27;;;-10.20;99.90;;;;;;5118462;28;20409;-89
2022/01/14 01:16:35;;;;;;;33.73;19.00;;;-7.80;99.90;;;;;;5118798;28;20757;-86
2022/01/14 01:19:01;;;;;;;26.43;17.87;;;-7.80;99.90;;;;;;5119921;28;20385;-85
2022/01/14 01:21:27;;;;;;;31.00;18.57;;;-8.50;99.90;;;;;;5118413;28;20234;-86
2022/01/14 01:23:53;;;;;;;31.03;20.33;;;-10.80;99.90;;;;;;5118389;28;20172;-86
2022/01/14 01:26:27;;;;;;;28.43;18.83;;;-9.20;99.90;;;;;;5118521;28;20172;-85
2022/01/14 01:29:03;;;;;;;33.50;18.10;;;-10.30;99.90;;;;;;5118605;28;20294;-86
2022/01/14 01:31:35;;;;;;;29.87;18.67;;;-10.50;99.90;;;;;;5118879;28;20402;-86
2022/01/14 01:34:07;;;;;;;36.33;19.70;;;-7.40;99.90;;;;;;5119873;28;20438;-86
2022/01/14 01:36:33;;;;;;;30.00;17.67;;;-10.30;99.90;;;;;;5120817;28;20412;-87
2022/01/14 01:38:59;;;;;;;30.47;18.53;;;-9.70;99.90;;;;;;5119058;28;20396;-86
2022/01/14 01:41:25;;;;;;;34.80;20.50;;;-9.10;99.90;;;;;;5118800;28;20440;-86
2022/01/14 01:43:53;;;;;;;28.90;17.90;;;-8.20;99.90;;;;;;5118040;28;20837;-86
2022/01/14 01:46:23;;;;;;;26.17;18.77;;;-10.30;99.90;;;;;;5118562;28;20173;-86
2022/01/14 01:48:53;;;;;;;28.67;19.30;;;-8.70;99.90;;;;;;5118443;28;20412;-86
2022/01/14 01:51:20;;;;;;;27.50;18.63;;;-10.10;99.90;;;;;;5118241;28;20713;-86
2022/01/14 01:53:47;;;;;;;25.37;17.10;;;-9.90;99.90;;;;;;5118721;28;20444;-85
2022/01/14 01:56:14;;;;;;;27.63;18.90;;;-8.00;99.90;;;;;;5119459;28;20396;-86
2022/01/14 01:58:40;;;;;;;22.93;15.67;;;-8.60;99.90;;;;;;5118398;28;20467;-86
2022/01/14 02:01:07;;;;;;;27.63;17.73;;;-8.50;99.90;;;;;;5117589;28;20409;-85
2022/01/14 02:03:37;;;;;;;31.33;18.90;;;-9.80;99.90;;;;;;5119095;28;20710;-86
2022/01/14 02:06:04;;;;;;;29.80;18.70;;;-10.20;99.90;;;;;;5118183;28;20462;-86
2022/01/14 02:08:30;;;;;;;28.17;18.27;;;-7.30;99.90;;;;;;5119344;28;20424;-86
2022/01/14 02:10:56;;;;;;;28.43;18.43;;;-9.50;99.90;;;;;;5117070;28;20451;-86
2022/01/14 02:13:22;;;;;;;28.53;16.70;;;-9.40;99.90;;;;;;5118063;28;20311;-86
2022/01/14 02:18:33;;;;;;;32.83;19.10;;;-7.30;99.90;;;;;;5118676;28;20492;-85
2022/01/14 02:24:06;;;;;;;26.07;17.40;;;-7.40;99.90;;;;;;5117864;28;20405;-85
2022/01/14 02:26:32;;;;;;;31.93;18.13;;;-7.50;99.90;;;;;;5117650;28;20416;-85
2022/01/14 02:28:58;;;;;;;24.10;17.53;;;-10.30;99.90;;;;;;5117568;28;20709;-85
2022/01/14 02:31:24;;;;;;;27.13;18.30;;;-8.90;99.90;;;;;;5116986;28;20401;-85
2022/01/14 02:33:50;;;;;;;23.67;17.33;;;-10.30;99.90;;;;;;5117454;28;20194;-86
2022/01/14 02:36:16;;;;;;;41.13;21.50;;;-9.90;99.90;;;;;;5117478;28;20170;-85
2022/01/14 02:38:44;;;;;;;31.27;19.17;;;-9.90;99.90;;;;;;5118418;28;20480;-85
2022/01/14 02:41:10;;;;;;;37.23;18.27;;;-8.70;99.90;;;;;;5117477;28;20404;-85
2022/01/14 02:43:36;;;;;;;32.70;21.07;;;-9.40;99.90;;;;;;5117854;28;20522;-85
2022/01/14 02:46:05;;;;;;;29.20;18.30;;;-6.80;99.90;;;;;;5118486;28;20494;-85
2022/01/14 02:48:30;;;;;;;31.23;20.23;;;-9.50;99.90;;;;;;5117659;28;20186;-84
2022/01/14 02:51:01;;;;;;;25.20;17.90;;;-9.50;99.90;;;;;;5117462;28;20601;-84
2022/01/14 02:55:58;;;;;;;29.30;19.13;;;-7.70;99.90;;;;;;5119173;28;20408;-84
2022/01/14 02:58:26;;;;;;;34.23;20.97;;;-10.00;99.90;;;;;;5128245;28;20418;-83
2022/01/14 03:00:53;;;;;;;34.10;19.33;;;-7.30;99.90;;;;;;5128859;28;20461;-84
2022/01/14 03:03:23;;;;;;;32.60;21.07;;;-10.20;99.90;;;;;;5117217;28;20400;-85
2022/01/14 03:05:51;;;;;;;30.03;19.70;;;-10.30;99.90;;;;;;5117698;28;20455;-84
2022/01/14 03:08:21;;;;;;;25.97;17.77;;;-9.50;99.90;;;;;;5116898;28;20395;-84
2022/01/14 03:10:52;;;;;;;28.17;19.03;;;-8.00;99.90;;;;;;5115894;28;20415;-84
2022/01/14 03:13:19;;;;;;;29.40;17.27;;;-10.20;99.90;;;;;;5116721;28;20794;-84
2022/01/14 03:15:45;;;;;;;33.27;19.77;;;-8.30;99.90;;;;;;5117191;27;20392;-84
2022/01/14 03:18:10;;;;;;;27.07;19.17;;;-10.00;99.90;;;;;;5116746;28;20919;-86
2022/01/14 03:23:05;;;;;;;24.40;16.80;;;-10.20;99.90;;;;;;5116954;28;20168;-84
2022/01/14 03:25:51;;;;;;;27.37;20.07;;;-10.00;99.90;;;;;;5116788;28;20418;-84
2022/01/14 03:28:22;;;;;;;30.10;18.93;;;-10.50;99.90;;;;;;5116760;28;20409;-84
2022/01/14 03:30:51;;;;;;;29.23;17.67;;;-10.10;99.90;;;;;;5116551;28;20440;-84
2022/01/14 03:33:23;;;;;;;26.80;17.47;;;-7.60;99.90;;;;;;5115334;28;20444;-85
2022/01/14 03:35:50;;;;;;;32.87;18.87;;;-10.20;99.90;;;;;;5115545;28;20829;-85
2022/01/14 03:38:16;;;;;;;26.30;17.70;;;-10.30;99.90;;;;;;5116283;28;20405;-86
2022/01/14 03:40:42;;;;;;;31.37;19.27;;;-7.80;99.90;;;;;;5116403;28;20857;-85
2022/01/14 03:43:07;;;;;;;27.80;16.67;;;-10.10;99.90;;;;;;5115232;28;20433;-85
2022/01/14 03:45:33;;;;;;;24.20;17.60;;;-10.60;99.90;;;;;;5116343;28;20198;-86
2022/01/14 03:47:59;;;;;;;34.30;19.40;;;-7.40;99.90;;;;;;5115935;28;20478;-86
2022/01/14 03:50:27;;;;;;;36.00;19.87;;;-10.40;99.90;;;;;;5115356;28;20172;-86
2022/01/14 03:52:52;;;;;;;29.03;20.07;;;-10.40;99.90;;;;;;5116960;28;20246;-86
2022/01/14 03:55:18;;;;;;;33.13;20.47;;;-10.70;99.90;;;;;;5116224;28;20403;-85
2022/01/14 03:57:47;;;;;;;34.97;19.30;;;-10.10;99.90;;;;;;5117239;28;20189;-84
2022/01/14 04:00:14;;;;;;;28.97;18.20;;;-10.30;99.90;;;;;;5115269;28;20172;-85
2022/01/14 04:02:39;;;;;;;34.20;20.90;;;-10.30;99.90;;;;;;5115573;28;20397;-84
2022/01/14 04:05:06;;;;;;;34.17;18.83;;;-7.00;99.90;;;;;;5116910;28;20457;-84
2022/01/14 04:07:31;;;;;;;31.67;19.23;;;-10.50;99.90;;;;;;5115259;28;20176;-84
2022/01/14 04:09:57;;;;;;;23.90;16.27;;;-7.80;99.90;;;;;;5115161;28;20424;-84
2022/01/14 04:12:42;;;;;;;30.70;18.57;;;-8.00;99.90;;;;;;5115430;28;20548;-85
2022/01/14 04:15:54;;;;;;;32.53;19.30;;;-10.10;99.90;;;;;;5115868;28;20194;-85
2022/01/14 04:17:57;;;;;;;28.87;17.57;;;-10.10;99.90;;;;;;5112073;28;20434;-85
2022/01/14 04:20:23;;;;;;;31.03;18.13;;;-8.40;99.90;;;;;;5115996;28;20388;-85
2022/01/14 04:22:48;;;;;;;30.53;17.63;;;-9.20;99.90;;;;;;5115501;28;20707;-85
2022/01/14 04:25:15;;;;;;;28.60;17.47;;;-7.90;99.90;;;;;;5115579;28;20225;-84
2022/01/14 04:27:41;;;;;;;31.43;19.07;;;-10.30;99.90;;;;;;5114212;28;20214;-85
2022/01/14 04:30:08;;;;;;;32.97;18.40;;;-7.70;99.90;;;;;;5116538;28;20432;-85
2022/01/14 04:32:33;;;;;;;33.17;18.70;;;-9.90;99.90;;;;;;5116033;28;20206;-86
2022/01/14 04:34:59;;;;;;;28.93;20.90;;;-9.90;99.90;;;;;;5115693;28;20404;-85
2022/01/14 04:39:59;;;;;;;30.90;18.47;;;-10.40;99.90;;;;;;5150448;27;20896;-84
2022/01/14 04:42:26;;;;;;;35.47;19.07;;;-10.10;99.90;;;;;;5133188;28;20404;-85
2022/01/14 04:44:54;;;;;;;28.33;16.77;;;-7.10;99.90;;;;;;5132340;28;20580;-85
2022/01/14 04:47:44;;;;;;;33.27;18.70;;;-7.50;99.90;;;;;;5132772;28;20418;-83
2022/01/14 04:50:20;;;;;;;31.87;18.27;;;-6.40;99.90;;;;;;5132774;28;20430;-84
2022/01/14 04:52:47;;;;;;;29.00;18.30;;;-9.70;99.90;;;;;;5132157;28;20413;-84
2022/01/14 04:55:17;;;;;;;25.50;17.43;;;-7.20;99.90;;;;;;5133698;28;20382;-84
2022/01/14 04:57:44;;;;;;;33.37;19.67;;;-9.90;99.90;;;;;;5132762;28;20404;-84
2022/01/14 05:00:24;;;;;;;43.50;20.47;;;-7.10;99.90;;;;;;5132511;28;20403;-84
2022/01/14 05:02:52;;;;;;;29.87;19.70;;;-9.40;99.90;;;;;;5132072;28;20430;-84
2022/01/14 05:05:21;;;;;;;39.13;21.17;;;-6.60;99.90;;;;;;5132130;28;20405;-84
2022/01/14 05:07:48;;;;;;;33.03;19.17;;;-7.10;99.90;;;;;;5132401;28;20396;-84
2022/01/14 05:10:23;;;;;;;30.70;21.17;;;-9.30;99.90;;;;;;5132179;28;20411;-84
2022/01/14 05:12:48;;;;;;;31.47;20.77;;;-6.60;99.90;;;;;;5133314;28;20482;-83
2022/01/14 05:15:16;;;;;;;34.03;17.27;;;-9.90;99.90;;;;;;5131984;28;20436;-84
2022/01/14 05:17:42;;;;;;;25.00;16.73;;;-7.10;99.90;;;;;;5132439;28;20565;-84
2022/01/14 05:20:09;;;;;;;26.97;18.00;;;-6.50;99.90;;;;;;5132665;28;20391;-85
2022/01/14 05:22:35;;;;;;;26.17;18.60;;;-9.70;99.90;;;;;;5133267;28;20176;-84
2022/01/14 05:25:01;;;;;;;30.10;18.27;;;-9.80;99.90;;;;;;5132287;28;20411;-83
2022/01/14 05:27:26;;;;;;;35.50;20.63;;;-7.10;99.90;;;;;;5133295;28;20168;-84
2022/01/14 05:29:52;;;;;;;35.33;21.60;;;-9.90;99.90;;;;;;5131196;28;20411;-85
2022/01/14 05:32:20;;;;;;;30.23;19.87;;;-9.80;99.90;;;;;;5132126;28;20575;-86
2022/01/14 05:34:47;;;;;;;33.83;20.70;;;-7.30;99.90;;;;;;5131972;28;20229;-83
2022/01/14 05:37:13;;;;;;;30.93;18.93;;;-9.60;99.90;;;;;;5131977;28;20476;-84
2022/01/14 05:39:39;;;;;;;30.50;20.00;;;-8.50;99.90;;;;;;5132018;28;20498;-83
2022/01/14 05:42:05;;;;;;;32.33;19.90;;;-9.20;99.90;;;;;;5132928;28;20413;-83
2022/01/14 05:44:32;;;;;;;35.73;20.17;;;-10.30;99.90;;;;;;5131403;28;20413;-85
2022/01/14 05:46:59;;;;;;;37.17;22.53;;;-8.80;99.90;;;;;;5132865;28;20394;-84
2022/01/14 05:49:25;;;;;;;30.83;19.63;;;-10.40;99.90;;;;;;5128575;28;20409;-83
2022/01/14 05:51:51;;;;;;;34.23;18.80;;;-9.40;99.90;;;;;;5117758;28;20418;-84
2022/01/14 05:54:18;;;;;;;31.50;21.13;;;-8.20;99.90;;;;;;5118141;28;20428;-83
2022/01/14 05:56:44;;;;;;;33.97;20.43;;;-8.00;99.90;;;;;;5117048;28;20408;-83
2022/01/14 05:59:11;;;;;;;31.00;19.53;;;-7.40;99.90;;;;;;5117442;28;20454;-84
2022/01/14 06:01:37;;;;;;;34.30;20.80;;;-10.20;99.90;;;;;;5117583;28;20400;-84
2022/01/14 06:04:04;;;;;;;28.87;19.10;;;-7.40;99.90;;;;;;5117753;28;20703;-83
2022/01/14 06:06:31;;;;;;;30.90;18.13;;;-10.50;99.90;;;;;;5118164;28;20399;-83
2022/01/14 06:08:57;;;;;;;29.43;19.73;;;-7.30;99.90;;;;;;5117829;28;20462;-84
2022/01/14 06:11:23;;;;;;;28.53;21.00;;;-10.40;99.90;;;;;;5118547;28;20453;-83
2022/01/14 06:13:49;;;;;;;29.33;18.67;;;-10.70;99.90;;;;;;5117112;28;20407;-83
2022/01/14 06:16:15;;;;;;;30.07;19.97;;;-8.40;99.90;;;;;;5117215;28;20461;-84
2022/01/14 06:18:42;;;;;;;34.90;20.70;;;-10.30;99.90;;;;;;5117416;28;20229;-84
2022/01/14 06:21:08;;;;;;;28.83;18.37;;;-11.20;99.90;;;;;;5118624;28;20452;-84
2022/01/14 06:23:34;;;;;;;29.27;17.77;;;-8.80;99.90;;;;;;5118409;28;20410;-84
2022/01/14 06:26:01;;;;;;;29.63;19.23;;;-10.40;99.90;;;;;;5119105;28;20428;-84
2022/01/14 06:28:27;;;;;;;36.03;18.57;;;-8.20;99.90;;;;;;5120488;28;20865;-84
2022/01/14 06:30:53;;;;;;;30.53;19.50;;;-7.70;99.90;;;;;;5122367;28;20404;-83
2022/01/14 06:33:19;;;;;;;35.27;21.37;;;-9.80;99.90;;;;;;5126558;28;20172;-85
2022/01/14 06:35:45;;;;;;;38.00;19.07;;;-9.80;99.90;;;;;;5127142;28;20231;-82
2022/01/14 06:38:11;;;;;;;35.67;22.20;;;-7.00;99.90;;;;;;5123999;28;20500;-83
2022/01/14 06:40:37;;;;;;;28.73;19.87;;;-6.70;99.90;;;;;;5118328;28;20228;-84
2022/01/14 06:43:04;;;;;;;31.17;18.80;;;-8.60;99.90;;;;;;5116522;28;20176;-83
2022/01/14 06:45:32;;;;;;;36.80;20.93;;;-7.40;99.90;;;;;;5116633;28;20450;-82
2022/01/14 06:47:58;;;;;;;25.90;18.60;;;-9.70;99.90;;;;;;5118082;28;20756;-84
2022/01/14 06:50:24;;;;;;;34.47;18.57;;;-6.30;99.90;;;;;;5098459;28;20724;-83
2022/01/14 06:52:50;;;;;;;36.37;19.10;;;-8.00;99.90;;;;;;5098458;28;20424;-81
2022/01/14 06:55:20;;;;;;;35.30;20.57;;;-9.60;99.90;;;;;;5103178;28;20531;-85
2022/01/14 06:57:45;;;;;;;34.33;20.13;;;-9.80;99.90;;;;;;5116475;28;20934;-85
2022/01/14 07:00:14;;;;;;;37.43;20.33;;;-9.80;99.90;;;;;;5114672;28;20412;-80
2022/01/14 07:02:40;;;;;;;33.97;20.67;;;-9.80;99.90;;;;;;5115226;28;20164;-84
2022/01/14 07:05:08;;;;;;;32.33;20.97;;;-7.40;99.90;;;;;;5097093;28;20419;-83
2022/01/14 07:07:34;;;;;;;44.77;23.53;;;-10.00;99.90;;;;;;5100939;28;20957;-84
2022/01/14 07:10:00;;;;;;;33.63;19.50;;;-9.90;99.90;;;;;;5094995;28;20444;-80
2022/01/14 07:12:32;;;;;;;30.17;18.73;;;-10.00;99.90;;;;;;5094509;28;20479;-84
2022/01/14 07:14:58;;;;;;;32.43;20.53;;;-7.80;99.90;;;;;;5096564;28;20844;-84
2022/01/14 07:17:25;;;;;;;32.43;20.93;;;-7.20;99.90;;;;;;5095100;28;20469;-81
2022/01/14 07:19:53;;;;;;;33.07;20.10;;;-7.40;99.90;;;;;;5113028;28;20482;-84
2022/01/14 07:22:20;;;;;;;38.53;21.83;;;-8.40;99.90;;;;;;5110311;28;20416;-84
2022/01/14 07:24:46;;;;;;;37.03;21.63;;;-9.50;99.90;;;;;;5104352;28;20417;-84
2022/01/14 07:27:12;;;;;;;36.20;21.53;;;-7.20;99.90;;;;;;5106344;28;20911;-82
2022/01/14 07:29:38;;;;;;;34.93;20.67;;;-7.80;99.90;;;;;;5096685;28;20176;-82
2022/01/14 07:32:04;;;;;;;35.07;19.50;;;-7.60;99.90;;;;;;5095008;28;20416;-82
2022/01/14 07:34:30;;;;;;;35.30;21.43;;;-9.60;99.90;;;;;;5094312;28;20188;-83
2022/01/14 07:36:56;;;;;;;28.80;20.60;;;-9.30;99.90;;;;;;5101714;28;20764;-83
2022/01/14 07:39:23;;;;;;;39.87;22.67;;;-7.00;99.90;;;;;;5106308;28;20212;-77
2022/01/14 07:41:53;;;;;;;29.17;19.13;;;-7.80;99.90;;;;;;5107352;28;20180;-75
2022/01/14 07:44:19;;;;;;;33.60;20.87;;;-9.70;99.90;;;;;;5105313;28;20404;-81
2022/01/14 07:46:45;;;;;;;38.27;23.17;;;-9.80;99.90;;;;;;5106574;28;20538;-81
2022/01/14 07:49:11;;;;;;;33.83;21.13;;;-9.80;99.90;;;;;;5107391;28;20415;-84
2022/01/14 07:51:37;;;;;;;37.07;22.57;;;-7.70;99.90;;;;;;5105201;28;20412;-75
2022/01/14 07:54:06;;;;;;;29.30;19.77;;;-9.60;99.90;;;;;;5103918;28;20272;-75
2022/01/14 07:56:37;;;;;;;30.10;20.40;;;-9.60;99.90;;;;;;5099460;28;20178;-81
2022/01/14 07:59:05;;;;;;;35.40;19.97;;;-7.90;99.90;;;;;;5094741;28;20483;-78
2022/01/14 08:01:33;;;;;;;29.03;21.27;;;-8.20;99.90;;;;;;5093960;28;20412;-78
2022/01/14 08:04:00;;;;;;;40.20;23.33;;;-9.60;99.90;;;;;;5095456;28;20511;-79
2022/01/14 08:06:27;;;;;;;31.90;20.63;;;-9.50;99.90;;;;;;5094286;28;20487;-79
2022/01/14 08:08:53;;;;;;;34.80;21.97;;;-7.60;99.90;;;;;;5094145;28;20887;-78
2022/01/14 08:11:19;;;;;;;32.87;22.80;;;-6.80;99.90;;;;;;5094195;28;20489;-81
2022/01/14 08:13:45;;;;;;;35.40;22.53;;;-7.90;99.90;;;;;;5093426;28;20872;-81
2022/01/14 08:16:10;;;;;;;46.00;26.47;;;-9.20;99.90;;;;;;5095581;28;20658;-80
2022/01/14 08:18:36;;;;;;;42.27;25.30;;;-9.10;99.90;;;;;;5094852;28;20188;-78
2022/01/14 08:21:03;;;;;;;49.60;24.33;;;-6.30;99.90;;;;;;5094389;28;20581;-83
2022/01/14 08:23:30;;;;;;;42.10;23.20;;;-5.70;99.90;;;;;;5094144;28;20206;-79
2022/01/14 08:25:57;;;;;;;36.63;23.17;;;-7.20;99.90;;;;;;5095261;28;20417;-79
2022/01/14 08:28:25;;;;;;;36.47;24.77;;;-8.10;99.90;;;;;;5094948;28;20406;-78
2022/01/14 08:30:51;;;;;;;39.03;24.33;;;-7.80;99.90;;;;;;5093963;28;20413;-77
2022/01/14 08:33:17;;;;;;;27.33;19.67;;;-8.90;99.90;;;;;;5093977;28;20474;-76
2022/01/14 08:35:43;;;;;;;35.20;23.03;;;-7.50;99.90;;;;;;5095503;28;20421;-80
2022/01/14 08:38:09;;;;;;;36.50;23.90;;;-7.70;99.90;;;;;;5092721;28;20586;-76
2022/01/14 08:40:35;;;;;;;37.50;21.50;;;-6.40;99.90;;;;;;5095153;28;20166;-79
2022/01/14 08:43:01;;;;;;;33.17;19.07;;;-8.10;99.90;;;;;;5094318;28;20408;-79
2022/01/14 08:45:27;;;;;;;42.77;21.70;;;-6.50;99.90;;;;;;5111101;28;20245;-78
2022/01/14 08:47:55;;;;;;;34.33;20.23;;;-8.40;99.90;;;;;;5115479;28;20840;-79
2022/01/14 08:50:26;;;;;;;39.90;20.97;;;-8.10;99.90;;;;;;5114610;28;20461;-78
2022/01/14 08:52:52;;;;;;;44.57;22.93;;;-7.10;99.90;;;;;;5115291;28;20401;-75
2022/01/14 08:55:22;;;;;;;38.80;24.60;;;-8.20;99.90;;;;;;5104285;28;20470;-79
2022/01/14 08:57:49;;;;;;;34.67;23.87;;;-8.00;99.90;;;;;;5093622;28;20557;-78
2022/01/14 09:00:16;;;;;;;34.63;21.00;;;-6.80;99.90;;;;;;5094512;28;20398;-76
2022/01/14 09:02:42;;;;;;;31.07;20.73;;;-7.80;99.90;;;;;;5094443;28;20409;-76
2022/01/14 09:05:09;;;;;;;33.50;21.80;;;-6.40;99.90;;;;;;5093009;28;20497;-77
2022/01/14 09:07:35;;;;;;;33.70;21.03;;;-8.00;99.90;;;;;;5094106;28;20426;-76
2022/01/14 09:10:01;;;;;;;36.27;20.63;;;-6.10;99.90;;;;;;5094502;28;20467;-78
2022/01/14 09:12:27;;;;;;;29.43;20.57;;;-6.70;99.90;;;;;;5093338;28;20527;-79
2022/01/14 09:14:53;;;;;;;38.07;21.83;;;-8.40;99.90;;;;;;5093306;28;20490;-77
2022/01/14 09:17:19;;;;;;;34.57;21.70;;;-8.20;99.90;;;;;;5094863;28;20184;-77
2022/01/14 09:19:45;;;;;;;36.97;21.80;;;-8.80;99.90;;;;;;5093991;28;20206;-77
2022/01/14 09:22:15;;;;;;;28.53;20.10;;;-7.90;99.90;;;;;;5093848;28;20681;-76
2022/01/14 09:24:42;;;;;;;28.73;20.93;;;-6.10;99.90;;;;;;5094272;28;20415;-81
2022/01/14 09:27:08;;;;;;;34.50;23.30;;;-7.90;99.90;;;;;;5114852;28;20852;-79
2022/01/14 09:29:35;;;;;;;30.07;18.90;;;-8.10;99.90;;;;;;5118114;27;20686;-78
2022/01/14 09:32:01;;;;;;;30.20;21.93;;;-7.80;99.90;;;;;;5100184;28;20512;-78
2022/01/14 09:34:27;;;;;;;34.17;20.47;;;-7.10;99.90;;;;;;5117201;28;20777;-75
2022/01/14 09:36:52;;;;;;;39.27;23.30;;;-7.80;99.90;;;;;;5116446;28;20187;-81
2022/01/14 09:39:18;;;;;;;38.17;20.20;;;-8.80;99.90;;;;;;5117246;28;20248;-79
2022/01/14 09:41:46;;;;;;;38.73;22.63;;;-7.80;99.90;;;;;;5118588;28;20620;-77
2022/01/14 09:44:15;;;;;;;41.80;23.30;;;-8.60;99.90;;;;;;5116649;28;20193;-77
2022/01/14 09:46:41;;;;;;;39.03;23.07;;;-7.20;99.90;;;;;;5119131;28;20737;-77
2022/01/14 09:49:07;;;;;;;32.17;22.60;;;-8.80;99.90;;;;;;5117753;28;20853;-78
2022/01/14 09:51:33;;;;;;;32.97;21.70;;;-8.60;99.90;;;;;;5115930;28;20418;-78
2022/01/14 09:53:59;;;;;;;40.73;22.43;;;-7.00;99.90;;;;;;5118989;28;20405;-75
2022/01/14 09:56:25;;;;;;;40.73;27.40;;;-9.20;99.90;;;;;;5116534;28;20539;-75
2022/01/14 09:58:52;;;;;;;39.80;24.13;;;-9.10;99.90;;;;;;5118076;28;20531;-78
2022/01/14 10:01:22;;;;;;;33.63;22.37;;;-9.20;99.90;;;;;;5118631;28;20402;-78
2022/01/14 10:04:03;;;;;;;37.83;21.60;;;-7.40;99.90;;;;;;5117030;28;20467;-77
2022/01/14 10:06:38;;;;;;;37.87;26.20;;;-9.50;99.90;;;;;;5116848;28;20408;-77
2022/01/14 10:09:07;;;;;;;53.33;32.53;;;-9.20;99.90;;;;;;5116611;28;20432;-80
2022/01/14 10:11:33;;;;;;;57.07;34.30;;;-8.30;99.90;;;;;;5117030;28;20433;-78
2022/01/14 10:14:11;;;;;;;60.97;36.93;;;-9.80;99.90;;;;;;5112536;28;20407;-76
2022/01/14 10:16:40;;;;;;;58.40;37.00;;;-6.70;99.90;;;;;;5118122;28;20248;-79
2022/01/14 10:19:17;;;;;;;57.90;39.80;;;-9.00;99.90;;;;;;5112964;28;20921;-77
2022/01/14 10:21:43;;;;;;;75.83;37.37;;;-7.30;99.90;;;;;;5097633;28;20478;-77
2022/01/14 10:24:11;;;;;;;60.67;38.03;;;-9.10;99.90;;;;;;5096424;28;20491;-76
2022/01/14 10:26:57;;;;;;;54.20;35.17;;;-8.90;99.90;;;;;;5096379;28;20169;-75
2022/01/14 10:29:29;;;;;;;50.30;32.63;;;-8.70;99.90;;;;;;5096937;28;20472;-77
2022/01/14 10:31:55;;;;;;;50.27;33.03;;;-8.90;99.90;;;;;;5097652;28;20399;-77
2022/01/14 10:34:22;;;;;;;53.67;35.50;;;-8.00;99.90;;;;;;5096809;28;20407;-76
2022/01/14 10:36:50;;;;;;;54.93;34.87;;;-7.70;99.90;;;;;;5096432;28;20396;-77
2022/01/14 10:39:27;;;;;;;59.13;37.57;;;-5.60;99.90;;;;;;5095064;28;20467;-76
2022/01/14 10:41:55;;;;;;;52.97;35.33;;;-7.40;99.90;;;;;;5096637;28;20490;-76
2022/01/14 10:44:29;;;;;;;59.67;37.03;;;-7.40;99.90;;;;;;5101097;28;20407;-76
2022/01/14 10:47:14;;;;;;;55.10;37.13;;;-8.40;99.90;;;;;;5116352;28;20405;-77
2022/01/14 10:49:42;;;;;;;55.83;35.23;;;-7.80;99.90;;;;;;5107505;28;20484;-76
2022/01/14 10:52:17;;;;;;;52.13;33.27;;;-6.60;99.90;;;;;;5094717;28;20417;-77
2022/01/14 10:54:48;;;;;;;59.43;34.07;;;-7.30;99.90;;;;;;5095252;28;20410;-77
2022/01/14 10:57:22;;;;;;;46.53;29.63;;;-7.60;99.90;;;;;;5115346;28;20858;-77
2022/01/14 10:59:51;;;;;;;46.03;30.87;;;-5.60;99.90;;;;;;5099473;28;20455;-78
2022/01/14 11:02:41;;;;;;;52.33;32.87;;;-7.10;99.90;;;;;;5101677;28;20883;-76
2022/01/14 11:05:12;;;;;;;51.27;29.80;;;-7.20;99.90;;;;;;5114210;28;20401;-76
2022/01/14 11:07:43;;;;;;;44.70;28.37;;;-5.50;99.90;;;;;;5096423;28;20554;-79
2022/01/14 11:10:20;;;;;;;46.97;31.97;;;-7.40;99.90;;;;;;5096427;28;20700;-77
2022/01/14 11:12:48;;;;;;;45.17;29.37;;;-6.90;99.90;;;;;;5095143;28;20716;-78
2022/01/14 11:15:14;;;;;;;47.50;29.30;;;-7.40;99.90;;;;;;5094959;28;20418;-77
2022/01/14 11:17:42;;;;;;;44.93;24.33;;;-7.10;99.90;;;;;;5095256;28;20760;-78
2022/01/14 11:20:09;;;;;;;39.00;24.57;;;-6.20;99.90;;;;;;5107368;28;20512;-77
2022/01/14 11:25:21;;;;;;;36.23;22.80;;;-6.50;99.90;;;;;;5117267;28;20750;-77
2022/01/14 11:27:56;;;;;;;31.97;21.87;;;-7.20;99.90;;;;;;5116236;28;20438;-76
2022/01/14 11:30:35;;;;;;;33.43;23.00;;;-7.00;99.90;;;;;;5116115;28;20866;-78
2022/01/14 11:33:03;;;;;;;35.20;20.03;;;-7.10;99.90;;;;;;5114200;28;20478;-77
2022/01/14 11:35:31;;;;;;;33.00;21.97;;;-7.40;99.90;;;;;;5114248;28;20467;-78
2022/01/14 11:37:57;;;;;;;29.47;19.33;;;-7.10;99.90;;;;;;5116019;28;20428;-78
2022/01/14 11:40:23;;;;;;;25.13;18.47;;;-6.40;99.90;;;;;;5105100;28;20427;-77
2022/01/14 11:42:59;;;;;;;34.77;20.93;;;-6.10;99.90;;;;;;5106467;28;20414;-78
2022/01/14 11:45:47;;;;;;;25.13;18.97;;;-7.10;99.90;;;;;;5105675;28;20936;-78
2022/01/14 11:48:38;;;;;;;29.00;19.40;;;-7.40;99.90;;;;;;5106128;28;20421;-75
2022/01/14 11:51:16;;;;;;;32.30;20.67;;;-7.60;99.90;;;;;;5106275;28;20841;-76
2022/01/14 11:53:53;;;;;;;28.10;17.73;;;-4.90;99.90;;;;;;5106675;28;20416;-77
2022/01/14 11:56:46;;;;;;;28.10;18.40;;;-7.00;99.90;;;;;;5095946;28;20393;-78
2022/01/14 11:59:17;;;;;;;25.53;19.33;;;-6.20;99.90;;;;;;5093394;28;20764;-78
2022/01/14 12:01:47;;;;;;;23.43;17.40;;;-7.60;99.90;;;;;;5095586;28;20399;-77
2022/01/14 12:04:13;;;;;;;29.13;19.67;;;-7.40;99.90;;;;;;5095743;28;20398;-76
2022/01/14 12:06:51;;;;;;;28.23;16.97;;;-7.20;99.90;;;;;;5094645;28;20396;-75
2022/01/14 12:09:19;;;;;;;28.03;20.87;;;-7.60;99.90;;;;;;5095573;28;20425;-74
2022/01/14 12:11:45;;;;;;;27.77;18.93;;;-5.00;99.90;;;;;;5095495;28;20395;-74
2022/01/14 12:14:12;;;;;;;32.87;20.67;;;-4.40;99.90;;;;;;5094276;28;20565;-78
2022/01/14 12:16:59;;;;;;;29.27;19.07;;;-7.30;99.90;;;;;;5095346;28;20245;-77
2022/01/14 12:19:28;;;;;;;25.70;19.37;;;-6.90;99.90;;;;;;5104768;28;20919;-77
2022/01/14 12:21:55;;;;;;;30.87;19.07;;;-6.90;99.90;;;;;;5101054;28;20407;-77
2022/01/14 12:24:30;;;;;;;36.97;20.97;;;-7.60;99.90;;;;;;5100624;28;20189;-78
2022/01/14 12:27:11;;;;;;;28.53;19.40;;;-7.20;99.90;;;;;;5109846;28;20174;-79
2022/01/14 12:29:42;;;;;;;26.83;19.00;;;-6.30;99.90;;;;;;5098101;28;20181;-76
2022/01/14 12:32:31;;;;;;;29.07;19.43;;;-6.60;99.90;;;;;;5094378;28;20432;-78
2022/01/14 12:34:56;;;;;;;27.30;19.43;;;-6.50;99.90;;;;;;5095005;28;20173;-79
2022/01/14 12:37:28;;;;;;;29.60;17.83;;;-6.20;99.90;;;;;;5102995;28;20182;-77
2022/01/14 12:39:55;;;;;;;28.27;20.93;;;-6.70;99.90;;;;;;5115047;28;20277;-76
2022/01/14 12:42:22;;;;;;;31.00;21.80;;;-6.70;99.90;;;;;;5113066;28;20554;-77
2022/01/14 12:44:51;;;;;;;27.27;18.77;;;-5.50;99.90;;;;;;5111817;28;20504;-78
2022/01/14 12:47:23;;;;;;;28.07;19.07;;;-4.60;99.90;;;;;;5114000;28;20158;-78
2022/01/14 12:49:50;;;;;;;32.83;19.73;;;-7.00;99.90;;;;;;5114871;28;20461;-77
2022/01/14 12:52:27;;;;;;;26.57;19.43;;;-6.80;99.90;;;;;;5104612;28;20179;-77
2022/01/14 12:54:53;;;;;;;24.87;20.63;;;-6.50;99.90;;;;;;5095360;28;20216;-77
2022/01/14 12:57:22;;;;;;;32.60;18.90;;;-6.80;99.90;;;;;;5093088;28;20175;-76
2022/01/14 12:59:52;;;;;;;32.70;22.30;;;-7.50;99.90;;;;;;5094651;28;20197;-77